sensor_id;sensor_type;location;lat;lon;timestamp;P1;durP1;ratioP1;P2;durP2;ratioP2
40717;SDS011;26405;51.850;-2.246;2022-10-17T00:00:12;7.57;;;2.33;;
40717;SDS011;26405;51.850;-2.246;2022-10-17T00:02:38;6.45;;;1.90;;
40717;SDS011;26405;51.850;-2.246;2022-10-17T00:05:03;8.38;;;2.20;;
40717;SDS011;26405;51.850;-2.246;2022-10-17T00:07:29;6.40;;;2.07;;
40717;SDS011;26405;51.850;-2.246;2022-10-17T00:09:56;8.52;;;2.13;;
40717;SDS011;26405;51.850;-2.246;2022-10-17T00:12:22;8.68;;;2.08;;
40717;SDS011;26405;51.850;-2.246;2022-10-17T00:14:47;7.75;;;2.05;;
40717;SDS011;26405;51.850;-2.246;2022-10-17T00:17:12;6.50;;;2.08;;
40717;SDS011;26405;51.850;-2.246;2022-10-17T00:19:39;8.98;;;2.05;;
40717;SDS011;26405;51.850;-2.246;2022-10-17T00:22:04;6.78;;;2.30;;
40717;SDS011;26405;51.850;-2.246;2022-10-17T00:24:30;9.82;;;2.80;;
40717;SDS011;26405;51.850;-2.246;2022-10-17T00:26:55;10.02;;;2.40;;
40717;SDS011;26405;51.850;-2.246;2022-10-17T00:29:21;6.10;;;2.13;;
40717;SDS011;26405;51.850;-2.246;2022-10-17T00:31:46;8.00;;;2.17;;
40717;SDS011;26405;51.850;-2.246;2022-10-17T00:34:14;11.45;;;2.78;;
40717;SDS011;26405;51.850;-2.246;2022-10-17T00:36:39;8.80;;;2.78;;
40717;SDS011;26405;51.850;-2.246;2022-10-17T00:39:04;9.45;;;2.60;;
40717;SDS011;26405;51.850;-2.246;2022-10-17T00:41:31;8.65;;;2.47;;
40717;SDS011;26405;51.850;-2.246;2022-10-17T00:44:53;6.75;;;2.17;;
40717;SDS011;26405;51.850;-2.246;2022-10-17T00:46:51;7.00;;;2.05;;
40717;SDS011;26405;51.850;-2.246;2022-10-17T00:49:19;8.70;;;2.25;;
40717;SDS011;26405;51.850;-2.246;2022-10-17T00:51:46;5.20;;;2.20;;
40717;SDS011;26405;51.850;-2.246;2022-10-17T00:54:13;5.18;;;2.10;;
40717;SDS011;26405;51.850;-2.246;2022-10-17T00:56:38;10.33;;;2.20;;
40717;SDS011;26405;51.850;-2.246;2022-10-17T00:59:04;11.45;;;2.38;;
40717;SDS011;26405;51.850;-2.246;2022-10-17T01:01:31;9.50;;;2.40;;
40717;SDS011;26405;51.850;-2.246;2022-10-17T01:03:56;10.07;;;2.33;;
40717;SDS011;26405;51.850;-2.246;2022-10-17T01:06:21;8.63;;;2.60;;
40717;SDS011;26405;51.850;-2.246;2022-10-17T01:08:47;9.77;;;2.60;;
40717;SDS011;26405;51.850;-2.246;2022-10-17T01:11:17;11.60;;;2.67;;
40717;SDS011;26405;51.850;-2.246;2022-10-17T01:13:51;8.23;;;2.40;;
40717;SDS011;26405;51.850;-2.246;2022-10-17T01:24:02;10.77;;;2.67;;
40717;SDS011;26405;51.850;-2.246;2022-10-17T01:31:47;10.57;;;2.58;;
40717;SDS011;26405;51.850;-2.246;2022-10-17T01:34:20;8.82;;;2.40;;
40717;SDS011;26405;51.850;-2.246;2022-10-17T01:41:55;7.88;;;2.50;;
40717;SDS011;26405;51.850;-2.246;2022-10-17T01:46:53;9.02;;;2.45;;
40717;SDS011;26405;51.850;-2.246;2022-10-17T01:49:22;7.80;;;2.40;;
40717;SDS011;26405;51.850;-2.246;2022-10-17T01:51:56;10.23;;;2.60;;
40717;SDS011;26405;51.850;-2.246;2022-10-17T01:57:25;10.75;;;2.63;;
40717;SDS011;26405;51.850;-2.246;2022-10-17T01:59:53;14.73;;;3.25;;
40717;SDS011;26405;51.850;-2.246;2022-10-17T02:02:19;12.90;;;2.53;;
40717;SDS011;26405;51.850;-2.246;2022-10-17T02:04:45;11.80;;;2.38;;
40717;SDS011;26405;51.850;-2.246;2022-10-17T02:07:11;12.98;;;2.97;;
40717;SDS011;26405;51.850;-2.246;2022-10-17T02:09:37;8.40;;;2.38;;
40717;SDS011;26405;51.850;-2.246;2022-10-17T02:14:34;10.75;;;2.60;;
40717;SDS011;26405;51.850;-2.246;2022-10-17T02:24:33;10.43;;;2.65;;
40717;SDS011;26405;51.850;-2.246;2022-10-17T02:27:23;10.73;;;2.67;;
40717;SDS011;26405;51.850;-2.246;2022-10-17T02:29:48;14.05;;;3.38;;
40717;SDS011;26405;51.850;-2.246;2022-10-17T02:32:19;11.50;;;2.85;;
40717;SDS011;26405;51.850;-2.246;2022-10-17T02:34:46;10.50;;;2.85;;
40717;SDS011;26405;51.850;-2.246;2022-10-17T02:37:13;10.13;;;2.70;;
40717;SDS011;26405;51.850;-2.246;2022-10-17T02:39:39;12.82;;;2.95;;
40717;SDS011;26405;51.850;-2.246;2022-10-17T02:42:08;10.43;;;2.90;;
40717;SDS011;26405;51.850;-2.246;2022-10-17T02:44:34;10.30;;;2.53;;
40717;SDS011;26405;51.850;-2.246;2022-10-17T02:49:49;8.50;;;2.45;;
40717;SDS011;26405;51.850;-2.246;2022-10-17T02:55:16;8.75;;;2.45;;
40717;SDS011;26405;51.850;-2.246;2022-10-17T02:57:45;8.32;;;2.63;;
40717;SDS011;26405;51.850;-2.246;2022-10-17T03:00:14;11.25;;;2.97;;
40717;SDS011;26405;51.850;-2.246;2022-10-17T03:02:51;9.82;;;2.70;;
40717;SDS011;26405;51.850;-2.246;2022-10-17T03:05:21;11.35;;;3.00;;
40717;SDS011;26405;51.850;-2.246;2022-10-17T03:07:53;13.88;;;2.90;;
40717;SDS011;26405;51.850;-2.246;2022-10-17T03:10:21;11.07;;;2.83;;
40717;SDS011;26405;51.850;-2.246;2022-10-17T03:12:46;9.57;;;2.70;;
40717;SDS011;26405;51.850;-2.246;2022-10-17T03:15:12;7.88;;;2.45;;
40717;SDS011;26405;51.850;-2.246;2022-10-17T03:17:38;13.15;;;2.90;;
40717;SDS011;26405;51.850;-2.246;2022-10-17T03:20:03;16.60;;;2.90;;
40717;SDS011;26405;51.850;-2.246;2022-10-17T03:22:29;15.27;;;3.05;;
40717;SDS011;26405;51.850;-2.246;2022-10-17T03:24:54;10.18;;;2.65;;
40717;SDS011;26405;51.850;-2.246;2022-10-17T03:27:20;8.55;;;2.40;;
40717;SDS011;26405;51.850;-2.246;2022-10-17T03:29:46;10.23;;;2.50;;
40717;SDS011;26405;51.850;-2.246;2022-10-17T03:32:11;5.95;;;2.28;;
40717;SDS011;26405;51.850;-2.246;2022-10-17T03:34:36;12.70;;;3.00;;
40717;SDS011;26405;51.850;-2.246;2022-10-17T03:37:02;9.18;;;2.55;;
40717;SDS011;26405;51.850;-2.246;2022-10-17T03:39:27;11.63;;;2.50;;
40717;SDS011;26405;51.850;-2.246;2022-10-17T03:41:52;13.45;;;2.83;;
40717;SDS011;26405;51.850;-2.246;2022-10-17T03:44:17;14.23;;;2.90;;
40717;SDS011;26405;51.850;-2.246;2022-10-17T03:46:43;14.10;;;2.75;;
40717;SDS011;26405;51.850;-2.246;2022-10-17T03:49:08;11.65;;;2.80;;
40717;SDS011;26405;51.850;-2.246;2022-10-17T03:51:34;8.63;;;2.45;;
40717;SDS011;26405;51.850;-2.246;2022-10-17T03:53:59;11.10;;;2.65;;
40717;SDS011;26405;51.850;-2.246;2022-10-17T03:56:25;7.15;;;2.28;;
40717;SDS011;26405;51.850;-2.246;2022-10-17T03:58:50;11.57;;;3.00;;
40717;SDS011;26405;51.850;-2.246;2022-10-17T04:01:16;12.73;;;2.72;;
40717;SDS011;26405;51.850;-2.246;2022-10-17T04:03:42;17.00;;;3.10;;
40717;SDS011;26405;51.850;-2.246;2022-10-17T04:06:07;12.25;;;2.92;;
40717;SDS011;26405;51.850;-2.246;2022-10-17T04:08:34;14.60;;;3.00;;
40717;SDS011;26405;51.850;-2.246;2022-10-17T04:11:00;11.23;;;2.70;;
40717;SDS011;26405;51.850;-2.246;2022-10-17T04:13:26;9.70;;;2.70;;
40717;SDS011;26405;51.850;-2.246;2022-10-17T04:15:55;11.77;;;2.58;;
40717;SDS011;26405;51.850;-2.246;2022-10-17T04:18:20;11.30;;;3.08;;
40717;SDS011;26405;51.850;-2.246;2022-10-17T04:20:45;12.32;;;2.95;;
40717;SDS011;26405;51.850;-2.246;2022-10-17T04:23:11;9.95;;;2.60;;
40717;SDS011;26405;51.850;-2.246;2022-10-17T04:25:36;11.52;;;2.70;;
40717;SDS011;26405;51.850;-2.246;2022-10-17T04:28:01;15.38;;;3.40;;
40717;SDS011;26405;51.850;-2.246;2022-10-17T04:30:26;14.68;;;3.22;;
40717;SDS011;26405;51.850;-2.246;2022-10-17T04:32:52;12.55;;;3.10;;
40717;SDS011;26405;51.850;-2.246;2022-10-17T04:35:17;11.83;;;2.73;;
40717;SDS011;26405;51.850;-2.246;2022-10-17T04:37:42;16.47;;;3.33;;
40717;SDS011;26405;51.850;-2.246;2022-10-17T04:40:08;13.23;;;3.05;;
40717;SDS011;26405;51.850;-2.246;2022-10-17T04:42:33;14.18;;;2.80;;
40717;SDS011;26405;51.850;-2.246;2022-10-17T04:44:58;15.02;;;3.13;;
40717;SDS011;26405;51.850;-2.246;2022-10-17T04:47:23;10.98;;;2.70;;
40717;SDS011;26405;51.850;-2.246;2022-10-17T04:49:49;14.70;;;3.30;;
40717;SDS011;26405;51.850;-2.246;2022-10-17T04:52:14;12.45;;;3.03;;
40717;SDS011;26405;51.850;-2.246;2022-10-17T04:54:42;9.85;;;2.72;;
40717;SDS011;26405;51.850;-2.246;2022-10-17T04:57:08;14.98;;;3.20;;
40717;SDS011;26405;51.850;-2.246;2022-10-17T04:59:33;12.13;;;2.90;;
40717;SDS011;26405;51.850;-2.246;2022-10-17T05:01:58;13.55;;;2.95;;
40717;SDS011;26405;51.850;-2.246;2022-10-17T05:04:23;14.90;;;3.05;;
40717;SDS011;26405;51.850;-2.246;2022-10-17T05:06:49;13.00;;;3.00;;
40717;SDS011;26405;51.850;-2.246;2022-10-17T05:09:14;14.55;;;3.33;;
40717;SDS011;26405;51.850;-2.246;2022-10-17T05:11:40;17.45;;;3.47;;
40717;SDS011;26405;51.850;-2.246;2022-10-17T05:14:06;13.40;;;3.07;;
40717;SDS011;26405;51.850;-2.246;2022-10-17T05:16:31;15.32;;;3.28;;
40717;SDS011;26405;51.850;-2.246;2022-10-17T05:18:57;17.35;;;4.15;;
40717;SDS011;26405;51.850;-2.246;2022-10-17T05:21:23;17.73;;;3.20;;
40717;SDS011;26405;51.850;-2.246;2022-10-17T05:23:48;12.10;;;2.80;;
40717;SDS011;26405;51.850;-2.246;2022-10-17T05:26:14;13.45;;;2.95;;
40717;SDS011;26405;51.850;-2.246;2022-10-17T05:28:39;15.20;;;3.22;;
40717;SDS011;26405;51.850;-2.246;2022-10-17T05:31:05;14.35;;;3.22;;
40717;SDS011;26405;51.850;-2.246;2022-10-17T05:33:30;14.45;;;3.05;;
40717;SDS011;26405;51.850;-2.246;2022-10-17T05:35:56;14.48;;;3.05;;
40717;SDS011;26405;51.850;-2.246;2022-10-17T05:38:22;16.00;;;3.25;;
40717;SDS011;26405;51.850;-2.246;2022-10-17T05:40:47;13.50;;;2.93;;
40717;SDS011;26405;51.850;-2.246;2022-10-17T05:43:12;14.30;;;3.17;;
40717;SDS011;26405;51.850;-2.246;2022-10-17T05:45:38;17.07;;;4.00;;
40717;SDS011;26405;51.850;-2.246;2022-10-17T05:48:04;10.32;;;2.60;;
40717;SDS011;26405;51.850;-2.246;2022-10-17T05:50:29;17.42;;;3.78;;
40717;SDS011;26405;51.850;-2.246;2022-10-17T05:52:54;11.75;;;3.20;;
40717;SDS011;26405;51.850;-2.246;2022-10-17T05:55:21;15.33;;;3.70;;
40717;SDS011;26405;51.850;-2.246;2022-10-17T05:57:46;12.73;;;3.20;;
40717;SDS011;26405;51.850;-2.246;2022-10-17T06:00:11;14.93;;;3.42;;
40717;SDS011;26405;51.850;-2.246;2022-10-17T06:02:37;11.98;;;3.30;;
40717;SDS011;26405;51.850;-2.246;2022-10-17T06:05:02;19.77;;;3.92;;
40717;SDS011;26405;51.850;-2.246;2022-10-17T06:07:27;19.45;;;3.55;;
40717;SDS011;26405;51.850;-2.246;2022-10-17T06:09:53;16.55;;;3.50;;
40717;SDS011;26405;51.850;-2.246;2022-10-17T06:12:18;13.90;;;3.10;;
40717;SDS011;26405;51.850;-2.246;2022-10-17T06:14:43;16.33;;;3.10;;
40717;SDS011;26405;51.850;-2.246;2022-10-17T06:17:08;13.60;;;3.30;;
40717;SDS011;26405;51.850;-2.246;2022-10-17T06:19:34;10.48;;;3.08;;
40717;SDS011;26405;51.850;-2.246;2022-10-17T06:21:59;16.77;;;3.35;;
40717;SDS011;26405;51.850;-2.246;2022-10-17T06:24:25;17.10;;;3.10;;
40717;SDS011;26405;51.850;-2.246;2022-10-17T06:26:50;12.75;;;3.22;;
40717;SDS011;26405;51.850;-2.246;2022-10-17T06:29:15;16.95;;;3.72;;
40717;SDS011;26405;51.850;-2.246;2022-10-17T06:31:41;17.80;;;3.42;;
40717;SDS011;26405;51.850;-2.246;2022-10-17T06:34:06;15.52;;;3.30;;
40717;SDS011;26405;51.850;-2.246;2022-10-17T06:36:31;16.70;;;3.72;;
40717;SDS011;26405;51.850;-2.246;2022-10-17T06:38:56;17.52;;;3.72;;
40717;SDS011;26405;51.850;-2.246;2022-10-17T06:41:22;15.05;;;3.60;;
40717;SDS011;26405;51.850;-2.246;2022-10-17T06:43:47;17.55;;;3.88;;
40717;SDS011;26405;51.850;-2.246;2022-10-17T06:46:13;15.77;;;3.75;;
40717;SDS011;26405;51.850;-2.246;2022-10-17T06:48:39;21.10;;;3.70;;
40717;SDS011;26405;51.850;-2.246;2022-10-17T06:51:04;17.70;;;3.50;;
40717;SDS011;26405;51.850;-2.246;2022-10-17T06:53:33;17.80;;;3.67;;
40717;SDS011;26405;51.850;-2.246;2022-10-17T06:55:59;16.80;;;3.53;;
40717;SDS011;26405;51.850;-2.246;2022-10-17T06:58:33;18.67;;;3.75;;
40717;SDS011;26405;51.850;-2.246;2022-10-17T07:00:59;16.10;;;3.40;;
40717;SDS011;26405;51.850;-2.246;2022-10-17T07:03:24;16.67;;;3.55;;
40717;SDS011;26405;51.850;-2.246;2022-10-17T07:05:50;16.55;;;3.47;;
40717;SDS011;26405;51.850;-2.246;2022-10-17T07:08:15;13.30;;;3.30;;
40717;SDS011;26405;51.850;-2.246;2022-10-17T07:10:40;15.32;;;3.28;;
40717;SDS011;26405;51.850;-2.246;2022-10-17T07:13:06;20.27;;;3.88;;
40717;SDS011;26405;51.850;-2.246;2022-10-17T07:15:35;17.48;;;3.65;;
40717;SDS011;26405;51.850;-2.246;2022-10-17T07:18:00;15.50;;;3.07;;
40717;SDS011;26405;51.850;-2.246;2022-10-17T07:20:25;17.35;;;3.72;;
40717;SDS011;26405;51.850;-2.246;2022-10-17T07:22:51;18.05;;;3.75;;
40717;SDS011;26405;51.850;-2.246;2022-10-17T07:25:16;16.70;;;3.27;;
40717;SDS011;26405;51.850;-2.246;2022-10-17T07:27:41;15.57;;;3.20;;
40717;SDS011;26405;51.850;-2.246;2022-10-17T07:30:07;15.05;;;3.13;;
40717;SDS011;26405;51.850;-2.246;2022-10-17T07:32:32;19.02;;;3.90;;
40717;SDS011;26405;51.850;-2.246;2022-10-17T07:35:04;21.42;;;3.70;;
40717;SDS011;26405;51.850;-2.246;2022-10-17T07:37:29;17.15;;;3.58;;
40717;SDS011;26405;51.850;-2.246;2022-10-17T07:39:55;18.17;;;3.70;;
40717;SDS011;26405;51.850;-2.246;2022-10-17T07:42:20;19.25;;;3.85;;
40717;SDS011;26405;51.850;-2.246;2022-10-17T07:44:46;17.48;;;3.38;;
40717;SDS011;26405;51.850;-2.246;2022-10-17T07:47:14;17.92;;;3.65;;
40717;SDS011;26405;51.850;-2.246;2022-10-17T07:49:39;17.10;;;3.53;;
40717;SDS011;26405;51.850;-2.246;2022-10-17T07:52:08;18.35;;;3.35;;
40717;SDS011;26405;51.850;-2.246;2022-10-17T07:54:34;16.80;;;3.78;;
40717;SDS011;26405;51.850;-2.246;2022-10-17T07:56:59;19.23;;;3.97;;
40717;SDS011;26405;51.850;-2.246;2022-10-17T07:59:24;15.88;;;3.58;;
40717;SDS011;26405;51.850;-2.246;2022-10-17T08:01:49;16.50;;;3.60;;
40717;SDS011;26405;51.850;-2.246;2022-10-17T08:04:15;13.93;;;3.25;;
40717;SDS011;26405;51.850;-2.246;2022-10-17T08:06:41;18.98;;;3.50;;
40717;SDS011;26405;51.850;-2.246;2022-10-17T08:09:06;19.02;;;3.70;;
40717;SDS011;26405;51.850;-2.246;2022-10-17T08:11:31;19.67;;;4.32;;
40717;SDS011;26405;51.850;-2.246;2022-10-17T08:13:56;16.85;;;4.15;;
40717;SDS011;26405;51.850;-2.246;2022-10-17T08:16:22;16.83;;;3.40;;
40717;SDS011;26405;51.850;-2.246;2022-10-17T08:18:47;20.00;;;3.92;;
40717;SDS011;26405;51.850;-2.246;2022-10-17T08:21:12;19.40;;;3.97;;
40717;SDS011;26405;51.850;-2.246;2022-10-17T08:23:37;19.80;;;4.03;;
40717;SDS011;26405;51.850;-2.246;2022-10-17T08:26:04;15.25;;;4.18;;
40717;SDS011;26405;51.850;-2.246;2022-10-17T08:28:29;19.17;;;4.50;;
40717;SDS011;26405;51.850;-2.246;2022-10-17T08:31:14;19.00;;;3.75;;
40717;SDS011;26405;51.850;-2.246;2022-10-17T08:33:40;18.40;;;3.63;;
40717;SDS011;26405;51.850;-2.246;2022-10-17T08:36:06;19.92;;;3.80;;
40717;SDS011;26405;51.850;-2.246;2022-10-17T08:38:32;20.02;;;3.88;;
40717;SDS011;26405;51.850;-2.246;2022-10-17T08:40:59;19.40;;;4.15;;
40717;SDS011;26405;51.850;-2.246;2022-10-17T08:43:27;20.85;;;4.00;;
40717;SDS011;26405;51.850;-2.246;2022-10-17T08:46:05;17.73;;;3.70;;
40717;SDS011;26405;51.850;-2.246;2022-10-17T08:48:33;19.52;;;3.58;;
40717;SDS011;26405;51.850;-2.246;2022-10-17T08:56:52;21.08;;;4.03;;
40717;SDS011;26405;51.850;-2.246;2022-10-17T08:58:57;27.20;;;3.90;;
40717;SDS011;26405;51.850;-2.246;2022-10-17T09:04:03;19.08;;;4.53;;
40717;SDS011;26405;51.850;-2.246;2022-10-17T09:06:34;22.00;;;4.55;;
40717;SDS011;26405;51.850;-2.246;2022-10-17T09:11:43;19.90;;;4.30;;
40717;SDS011;26405;51.850;-2.246;2022-10-17T09:17:07;18.27;;;3.95;;
40717;SDS011;26405;51.850;-2.246;2022-10-17T09:19:32;20.10;;;4.78;;
40717;SDS011;26405;51.850;-2.246;2022-10-17T09:22:10;19.83;;;4.28;;
40717;SDS011;26405;51.850;-2.246;2022-10-17T09:27:09;22.00;;;3.72;;
40717;SDS011;26405;51.850;-2.246;2022-10-17T09:29:36;19.95;;;4.15;;
40717;SDS011;26405;51.850;-2.246;2022-10-17T09:32:02;23.92;;;4.22;;
40717;SDS011;26405;51.850;-2.246;2022-10-17T09:36:53;15.10;;;3.75;;
40717;SDS011;26405;51.850;-2.246;2022-10-17T09:39:21;17.33;;;3.67;;
40717;SDS011;26405;51.850;-2.246;2022-10-17T09:41:54;19.33;;;4.10;;
40717;SDS011;26405;51.850;-2.246;2022-10-17T09:44:24;16.38;;;3.60;;
40717;SDS011;26405;51.850;-2.246;2022-10-17T09:47:10;15.98;;;3.70;;
40717;SDS011;26405;51.850;-2.246;2022-10-17T09:49:37;16.77;;;3.85;;
40717;SDS011;26405;51.850;-2.246;2022-10-17T09:52:04;22.05;;;4.97;;
40717;SDS011;26405;51.850;-2.246;2022-10-17T09:57:24;19.75;;;4.15;;
40717;SDS011;26405;51.850;-2.246;2022-10-17T09:59:57;19.77;;;4.20;;
40717;SDS011;26405;51.850;-2.246;2022-10-17T10:02:24;20.52;;;4.40;;
40717;SDS011;26405;51.850;-2.246;2022-10-17T10:07:15;20.98;;;4.50;;
40717;SDS011;26405;51.850;-2.246;2022-10-17T10:09:44;17.17;;;3.75;;
40717;SDS011;26405;51.850;-2.246;2022-10-17T10:12:20;17.55;;;4.00;;
40717;SDS011;26405;51.850;-2.246;2022-10-17T10:14:46;19.50;;;4.28;;
40717;SDS011;26405;51.850;-2.246;2022-10-17T10:17:26;22.25;;;4.10;;
40717;SDS011;26405;51.850;-2.246;2022-10-17T10:19:52;18.33;;;3.90;;
40717;SDS011;26405;51.850;-2.246;2022-10-17T10:22:18;17.90;;;3.47;;
40717;SDS011;26405;51.850;-2.246;2022-10-17T10:24:43;20.30;;;4.57;;
40717;SDS011;26405;51.850;-2.246;2022-10-17T10:27:13;17.77;;;4.10;;
40717;SDS011;26405;51.850;-2.246;2022-10-17T10:29:40;16.35;;;3.85;;
40717;SDS011;26405;51.850;-2.246;2022-10-17T10:34:32;14.23;;;3.58;;
40717;SDS011;26405;51.850;-2.246;2022-10-17T10:37:00;17.73;;;4.15;;
40717;SDS011;26405;51.850;-2.246;2022-10-17T10:41:51;16.83;;;4.00;;
40717;SDS011;26405;51.850;-2.246;2022-10-17T10:44:17;23.52;;;4.03;;
40717;SDS011;26405;51.850;-2.246;2022-10-17T10:46:45;17.08;;;3.38;;
40717;SDS011;26405;51.850;-2.246;2022-10-17T10:49:27;18.30;;;4.20;;
40717;SDS011;26405;51.850;-2.246;2022-10-17T10:51:53;17.40;;;3.50;;
40717;SDS011;26405;51.850;-2.246;2022-10-17T10:54:31;16.00;;;3.38;;
40717;SDS011;26405;51.850;-2.246;2022-10-17T10:56:59;19.02;;;3.80;;
40717;SDS011;26405;51.850;-2.246;2022-10-17T10:59:38;18.98;;;4.03;;
40717;SDS011;26405;51.850;-2.246;2022-10-17T11:02:18;16.00;;;3.55;;
40717;SDS011;26405;51.850;-2.246;2022-10-17T11:04:50;17.13;;;3.55;;
40717;SDS011;26405;51.850;-2.246;2022-10-17T11:07:21;18.05;;;3.72;;
40717;SDS011;26405;51.850;-2.246;2022-10-17T11:09:56;19.02;;;4.35;;
40717;SDS011;26405;51.850;-2.246;2022-10-17T11:14:52;21.42;;;4.50;;
40717;SDS011;26405;51.850;-2.246;2022-10-17T11:17:26;25.98;;;4.25;;
40717;SDS011;26405;51.850;-2.246;2022-10-17T11:22:31;23.67;;;4.68;;
40717;SDS011;26405;51.850;-2.246;2022-10-17T11:24:59;20.05;;;4.03;;
40717;SDS011;26405;51.850;-2.246;2022-10-17T11:27:28;19.92;;;4.13;;
40717;SDS011;26405;51.850;-2.246;2022-10-17T11:29:54;21.02;;;4.55;;
40717;SDS011;26405;51.850;-2.246;2022-10-17T11:32:21;17.52;;;3.60;;
40717;SDS011;26405;51.850;-2.246;2022-10-17T11:34:50;18.60;;;3.70;;
40717;SDS011;26405;51.850;-2.246;2022-10-17T11:37:24;19.75;;;3.88;;
40717;SDS011;26405;51.850;-2.246;2022-10-17T11:39:51;14.48;;;3.25;;
40717;SDS011;26405;51.850;-2.246;2022-10-17T11:42:22;19.75;;;4.18;;
40717;SDS011;26405;51.850;-2.246;2022-10-17T11:44:50;19.80;;;4.05;;
40717;SDS011;26405;51.850;-2.246;2022-10-17T11:47:30;19.10;;;3.90;;
40717;SDS011;26405;51.850;-2.246;2022-10-17T11:50:02;18.17;;;3.92;;
40717;SDS011;26405;51.850;-2.246;2022-10-17T11:52:40;19.67;;;3.90;;
40717;SDS011;26405;51.850;-2.246;2022-10-17T11:55:21;18.55;;;4.05;;
40717;SDS011;26405;51.850;-2.246;2022-10-17T12:05:31;14.52;;;3.53;;
40717;SDS011;26405;51.850;-2.246;2022-10-17T12:08:00;16.38;;;3.58;;
40717;SDS011;26405;51.850;-2.246;2022-10-17T12:10:49;15.95;;;3.42;;
40717;SDS011;26405;51.850;-2.246;2022-10-17T12:15:52;16.38;;;3.92;;
40717;SDS011;26405;51.850;-2.246;2022-10-17T12:18:17;20.27;;;3.80;;
40717;SDS011;26405;51.850;-2.246;2022-10-17T12:20:42;19.15;;;3.78;;
40717;SDS011;26405;51.850;-2.246;2022-10-17T12:23:20;17.13;;;3.67;;
40717;SDS011;26405;51.850;-2.246;2022-10-17T12:25:49;22.90;;;4.05;;
40717;SDS011;26405;51.850;-2.246;2022-10-17T12:28:25;19.27;;;3.83;;
40717;SDS011;26405;51.850;-2.246;2022-10-17T12:38:36;18.60;;;3.70;;
40717;SDS011;26405;51.850;-2.246;2022-10-17T12:41:02;18.60;;;3.50;;
40717;SDS011;26405;51.850;-2.246;2022-10-17T12:50:59;16.50;;;3.38;;
40717;SDS011;26405;51.850;-2.246;2022-10-17T12:53:24;20.85;;;3.85;;
40717;SDS011;26405;51.850;-2.246;2022-10-17T12:55:58;17.83;;;3.30;;
40717;SDS011;26405;51.850;-2.246;2022-10-17T12:58:24;18.45;;;3.22;;
40717;SDS011;26405;51.850;-2.246;2022-10-17T13:00:53;18.57;;;3.43;;
40717;SDS011;26405;51.850;-2.246;2022-10-17T13:03:23;16.88;;;3.25;;
40717;SDS011;26405;51.850;-2.246;2022-10-17T13:05:56;20.38;;;4.10;;
40717;SDS011;26405;51.850;-2.246;2022-10-17T13:08:23;19.65;;;3.58;;
40717;SDS011;26405;51.850;-2.246;2022-10-17T13:10:50;17.67;;;3.42;;
40717;SDS011;26405;51.850;-2.246;2022-10-17T13:13:24;22.67;;;3.40;;
40717;SDS011;26405;51.850;-2.246;2022-10-17T13:15:51;15.52;;;3.65;;
40717;SDS011;26405;51.850;-2.246;2022-10-17T13:18:18;20.73;;;3.50;;
40717;SDS011;26405;51.850;-2.246;2022-10-17T13:20:53;15.80;;;3.33;;
40717;SDS011;26405;51.850;-2.246;2022-10-17T13:23:25;18.50;;;3.58;;
40717;SDS011;26405;51.850;-2.246;2022-10-17T13:26:03;17.90;;;3.47;;
40717;SDS011;26405;51.850;-2.246;2022-10-17T13:28:28;16.63;;;3.28;;
40717;SDS011;26405;51.850;-2.246;2022-10-17T13:30:53;15.80;;;3.03;;
40717;SDS011;26405;51.850;-2.246;2022-10-17T13:35:53;15.20;;;3.20;;
40717;SDS011;26405;51.850;-2.246;2022-10-17T13:38:19;16.13;;;3.30;;
40717;SDS011;26405;51.850;-2.246;2022-10-17T13:40:47;12.15;;;2.83;;
40717;SDS011;26405;51.850;-2.246;2022-10-17T13:43:14;14.63;;;3.10;;
40717;SDS011;26405;51.850;-2.246;2022-10-17T13:45:43;14.82;;;2.85;;
40717;SDS011;26405;51.850;-2.246;2022-10-17T13:48:16;15.48;;;3.15;;
40717;SDS011;26405;51.850;-2.246;2022-10-17T13:50:42;14.23;;;3.50;;
40717;SDS011;26405;51.850;-2.246;2022-10-17T13:53:18;17.27;;;3.40;;
40717;SDS011;26405;51.850;-2.246;2022-10-17T13:55:53;10.77;;;2.85;;
40717;SDS011;26405;51.850;-2.246;2022-10-17T13:58:19;17.50;;;3.08;;
40717;SDS011;26405;51.850;-2.246;2022-10-17T14:00:44;15.33;;;3.50;;
40717;SDS011;26405;51.850;-2.246;2022-10-17T14:03:10;14.33;;;2.70;;
40717;SDS011;26405;51.850;-2.246;2022-10-17T14:05:56;14.30;;;2.97;;
40717;SDS011;26405;51.850;-2.246;2022-10-17T14:08:21;14.68;;;3.00;;
40717;SDS011;26405;51.850;-2.246;2022-10-17T14:10:46;13.03;;;3.50;;
40717;SDS011;26405;51.850;-2.246;2022-10-17T14:13:30;13.43;;;3.03;;
40717;SDS011;26405;51.850;-2.246;2022-10-17T14:16:00;17.92;;;3.28;;
40717;SDS011;26405;51.850;-2.246;2022-10-17T14:18:27;15.30;;;3.40;;
40717;SDS011;26405;51.850;-2.246;2022-10-17T14:20:53;12.52;;;3.40;;
40717;SDS011;26405;51.850;-2.246;2022-10-17T14:23:28;17.03;;;3.67;;
40717;SDS011;26405;51.850;-2.246;2022-10-17T14:26:04;14.15;;;3.38;;
40717;SDS011;26405;51.850;-2.246;2022-10-17T14:28:30;18.02;;;3.00;;
40717;SDS011;26405;51.850;-2.246;2022-10-17T14:31:07;17.60;;;3.67;;
40717;SDS011;26405;51.850;-2.246;2022-10-17T14:33:33;15.57;;;3.00;;
40717;SDS011;26405;51.850;-2.246;2022-10-17T14:35:59;17.47;;;4.00;;
40717;SDS011;26405;51.850;-2.246;2022-10-17T14:38:25;13.88;;;2.88;;
40717;SDS011;26405;51.850;-2.246;2022-10-17T14:40:52;11.07;;;2.70;;
40717;SDS011;26405;51.850;-2.246;2022-10-17T14:43:24;12.43;;;3.22;;
40717;SDS011;26405;51.850;-2.246;2022-10-17T14:45:50;12.25;;;3.08;;
40717;SDS011;26405;51.850;-2.246;2022-10-17T14:48:16;13.47;;;2.97;;
40717;SDS011;26405;51.850;-2.246;2022-10-17T14:50:42;11.38;;;3.20;;
40717;SDS011;26405;51.850;-2.246;2022-10-17T14:53:27;15.18;;;3.08;;
40717;SDS011;26405;51.850;-2.246;2022-10-17T14:58:28;16.70;;;2.93;;
40717;SDS011;26405;51.850;-2.246;2022-10-17T15:00:55;10.98;;;2.72;;
40717;SDS011;26405;51.850;-2.246;2022-10-17T15:03:20;18.17;;;3.13;;
40717;SDS011;26405;51.850;-2.246;2022-10-17T15:05:46;11.97;;;2.83;;
40717;SDS011;26405;51.850;-2.246;2022-10-17T15:08:12;14.83;;;3.03;;
40717;SDS011;26405;51.850;-2.246;2022-10-17T15:10:38;13.63;;;3.38;;
40717;SDS011;26405;51.850;-2.246;2022-10-17T15:13:06;11.82;;;3.17;;
40717;SDS011;26405;51.850;-2.246;2022-10-17T15:15:31;11.37;;;3.10;;
40717;SDS011;26405;51.850;-2.246;2022-10-17T15:17:57;16.43;;;3.20;;
40717;SDS011;26405;51.850;-2.246;2022-10-17T15:20:23;16.77;;;3.10;;
40717;SDS011;26405;51.850;-2.246;2022-10-17T15:22:54;16.90;;;3.80;;
40717;SDS011;26405;51.850;-2.246;2022-10-17T15:25:20;14.87;;;3.23;;
40717;SDS011;26405;51.850;-2.246;2022-10-17T15:27:45;17.23;;;3.67;;
40717;SDS011;26405;51.850;-2.246;2022-10-17T15:30:33;11.33;;;3.37;;
40717;SDS011;26405;51.850;-2.246;2022-10-17T15:32:57;16.77;;;3.70;;
40717;SDS011;26405;51.850;-2.246;2022-10-17T15:35:22;17.10;;;3.40;;
40717;SDS011;26405;51.850;-2.246;2022-10-17T15:37:48;18.17;;;3.23;;
40717;SDS011;26405;51.850;-2.246;2022-10-17T15:40:14;11.27;;;3.07;;
40717;SDS011;26405;51.850;-2.246;2022-10-17T15:42:40;14.20;;;3.40;;
40717;SDS011;26405;51.850;-2.246;2022-10-17T15:45:05;18.47;;;3.87;;
40717;SDS011;26405;51.850;-2.246;2022-10-17T15:47:31;19.00;;;3.67;;
40717;SDS011;26405;51.850;-2.246;2022-10-17T15:49:57;13.03;;;3.07;;
40717;SDS011;26405;51.850;-2.246;2022-10-17T15:52:23;17.88;;;3.72;;
40717;SDS011;26405;51.850;-2.246;2022-10-17T15:54:48;19.53;;;3.73;;
40717;SDS011;26405;51.850;-2.246;2022-10-17T15:59:42;13.20;;;3.10;;
40717;SDS011;26405;51.850;-2.246;2022-10-17T16:02:14;16.00;;;3.03;;
40717;SDS011;26405;51.850;-2.246;2022-10-17T16:04:39;9.50;;;2.80;;
40717;SDS011;26405;51.850;-2.246;2022-10-17T16:07:05;17.50;;;3.37;;
40717;SDS011;26405;51.850;-2.246;2022-10-17T16:09:31;11.77;;;2.95;;
40717;SDS011;26405;51.850;-2.246;2022-10-17T16:11:57;13.52;;;3.00;;